createdAt,value
2023-05-01T00:01:38.089Z,100253.73
2023-05-01T00:04:10.408Z,100251.94
2023-05-01T00:06:42.684Z,100252.66
2023-05-01T00:09:15.297Z,100250.19
2023-05-01T00:11:47.426Z,100246.13
2023-05-01T00:14:19.528Z,100245.34
2023-05-01T00:16:51.542Z,100242.08
2023-05-01T00:19:23.612Z,100241.42
2023-05-01T00:21:55.573Z,100239.40
2023-05-01T00:24:27.737Z,100241.70
2023-05-01T00:26:59.988Z,100243.64
2023-05-01T00:29:32.057Z,100239.23
2023-05-01T00:32:05.916Z,100235.36
2023-05-01T00:34:38.555Z,100238.98
2023-05-01T00:37:10.920Z,100230.86
2023-05-01T00:39:42.887Z,100233.04
2023-05-01T00:42:14.925Z,100234.34
2023-05-01T00:44:47.013Z,100230.56
2023-05-01T00:47:19.938Z,100228.39
2023-05-01T00:49:54.155Z,100225.70
2023-05-01T00:52:27.815Z,100227.93
2023-05-01T00:55:00.809Z,100226.56
2023-05-01T00:57:33.345Z,100227.29
2023-05-01T01:00:05.938Z,100228.18
2023-05-01T01:02:38.167Z,100227.80
2023-05-01T01:05:11.704Z,100230.61
2023-05-01T01:07:51.108Z,100228.77
2023-05-01T01:10:37.183Z,100227.08
2023-05-01T01:13:15.757Z,100228.92
2023-05-01T01:15:56.928Z,100225.52
2023-05-01T01:18:41.675Z,100224.38
2023-05-01T01:21:18.885Z,100220.02
2023-05-01T01:24:35.403Z,100221.41
2023-05-01T01:27:24.001Z,100226.23
2023-05-01T01:30:08.403Z,100222.45
2023-05-01T01:33:18.723Z,100219.33
2023-05-01T01:35:58.676Z,100217.23
2023-05-01T01:38:37.784Z,100220.40
2023-05-01T01:41:15.453Z,100217.42
2023-05-01T01:43:56.897Z,100217.39
2023-05-01T01:46:29.901Z,100214.88
2023-05-01T01:49:04.505Z,100211.84
2023-05-01T01:51:40.290Z,100211.61
2023-05-01T01:54:16.456Z,100203.96
2023-05-01T01:56:50.374Z,100206.14
2023-05-01T01:59:25.172Z,100209.45
2023-05-01T02:01:59.527Z,100204.15
2023-05-01T02:04:34.137Z,100206.25
2023-05-01T02:07:07.807Z,100205.84
2023-05-01T02:09:42.081Z,100205.48
2023-05-01T02:12:16.855Z,100202.24
2023-05-01T02:14:51.127Z,100200.16
2023-05-01T02:17:24.611Z,100197.61
2023-05-01T02:19:58.603Z,100195.04
2023-05-01T02:22:31.553Z,100194.36
2023-05-01T02:25:05.269Z,100186.98
2023-05-01T02:27:40.005Z,100181.60
2023-05-01T02:30:13.970Z,100182.69
2023-05-01T02:32:46.253Z,100180.48
2023-05-01T02:35:18.463Z,100176.16
2023-05-01T02:37:51.565Z,100176.36
2023-05-01T02:40:24.045Z,100179.89
2023-05-01T02:42:56.269Z,100183.45
2023-05-01T02:45:30.712Z,100189.84
2023-05-01T02:48:06.609Z,100187.65
2023-05-01T02:50:41.223Z,100185.23
2023-05-01T02:53:15.737Z,100181.69
2023-05-01T02:55:52.479Z,100178.79
2023-05-01T02:58:24.740Z,100176.66
2023-05-01T03:00:56.807Z,100172.85
2023-05-01T03:03:29.556Z,100171.36
2023-05-01T03:06:01.806Z,100170.80
2023-05-01T03:08:36.688Z,100166.70
2023-05-01T03:11:09.564Z,100170.23
2023-05-01T03:13:41.547Z,100168.80
2023-05-01T03:16:13.548Z,100170.31
2023-05-01T03:18:45.756Z,100170.79
2023-05-01T03:21:17.908Z,100168.05
2023-05-01T03:23:49.917Z,100165.00
2023-05-01T03:26:21.858Z,100163.05
2023-05-01T03:28:55.616Z,100161.48
2023-05-01T03:31:27.795Z,100160.77
2023-05-01T03:34:00.874Z,100161.91
2023-05-01T03:36:34.009Z,100159.32
2023-05-01T03:39:06.736Z,100156.09
2023-05-01T03:42:10.930Z,100153.37
2023-05-01T03:44:46.609Z,100155.52
2023-05-01T03:47:19.363Z,100153.10
2023-05-01T03:49:51.322Z,100149.59
2023-05-01T03:52:23.314Z,100151.01
2023-05-01T03:54:55.614Z,100154.61
2023-05-01T03:57:47.352Z,100155.55
2023-05-01T04:00:19.737Z,100155.50
2023-05-01T04:02:52.685Z,100159.23
2023-05-01T04:05:27.598Z,100160.21
2023-05-01T04:08:02.806Z,100159.49
2023-05-01T04:10:35.163Z,100160.92
2023-05-01T04:13:09.617Z,100159.01
2023-05-01T04:15:45.244Z,100158.55
2023-05-01T04:18:17.655Z,100156.84
2023-05-01T04:20:49.783Z,100153.59
2023-05-01T04:23:23.093Z,100153.60
2023-05-01T04:25:56.272Z,100155.86
2023-05-01T04:28:31.191Z,100158.56
2023-05-01T04:31:03.431Z,100160.67
2023-05-01T04:33:35.540Z,100158.63
2023-05-01T04:36:08.404Z,100160.39
2023-05-01T04:38:40.491Z,100160.23
2023-05-01T04:41:12.677Z,100160.16
2023-05-01T04:43:44.840Z,100159.77
2023-05-01T04:46:17.944Z,100162.84
2023-05-01T04:48:50.059Z,100162.02
2023-05-01T04:51:22.638Z,100168.16
2023-05-01T04:53:55.921Z,100166.77
2023-05-01T04:56:30.721Z,100162.66
2023-05-01T04:59:05.524Z,100164.45
2023-05-01T05:01:37.745Z,100165.46
2023-05-01T05:04:10.039Z,100161.59
2023-05-01T05:06:42.245Z,100161.85
2023-05-01T05:09:20.150Z,100155.80
2023-05-01T05:11:52.525Z,100156.11
2023-05-01T05:14:28.563Z,100152.65
2023-05-01T05:17:00.646Z,100155.52
2023-05-01T05:19:33.245Z,100150.05
2023-05-01T05:22:06.394Z,100147.56
2023-05-01T05:24:41.140Z,100146.44
2023-05-01T05:27:13.197Z,100150.59
2023-05-01T05:29:45.260Z,100146.39
2023-05-01T05:32:17.472Z,100147.54
2023-05-01T05:34:49.598Z,100143.73
2023-05-01T05:37:21.666Z,100144.59
2023-05-01T05:39:57.082Z,100142.45
2023-05-01T05:42:29.905Z,100140.14
2023-05-01T05:45:05.890Z,100142.09
2023-05-01T05:47:38.360Z,100142.04
2023-05-01T05:50:12.016Z,100141.21
2023-05-01T05:52:44.611Z,100139.74
2023-05-01T05:55:17.289Z,100139.17
2023-05-01T05:57:58.096Z,100140.99
2023-05-01T06:00:30.191Z,100139.98
2023-05-01T06:03:05.331Z,100140.12
2023-05-01T06:05:37.913Z,100140.07
2023-05-01T06:08:11.663Z,100139.11
2023-05-01T06:10:45.500Z,100133.80
2023-05-01T06:13:18.077Z,100137.91
2023-05-01T06:15:53.490Z,100133.89
2023-05-01T06:18:26.313Z,100134.74
2023-05-01T06:20:58.446Z,100134.70
2023-05-01T06:23:31.219Z,100136.09
2023-05-01T06:26:23.565Z,100138.17
2023-05-01T06:28:55.903Z,100134.88
2023-05-01T06:31:29.157Z,100136.70
2023-05-01T06:34:01.373Z,100135.26
2023-05-01T06:36:51.417Z,100131.32
2023-05-01T06:39:23.615Z,100129.68
2023-05-01T06:41:55.871Z,100127.96
2023-05-01T06:44:36.054Z,100123.20
2023-05-01T06:47:08.170Z,100122.95
2023-05-01T06:49:40.453Z,100123.32
2023-05-01T06:52:12.581Z,100119.36
2023-05-01T06:54:44.866Z,100116.62
2023-05-01T06:57:16.993Z,100115.11
2023-05-01T06:59:49.199Z,100109.86
2023-05-01T07:02:21.640Z,100107.76
2023-05-01T07:04:54.279Z,100108.33
2023-05-01T07:07:26.466Z,100104.29
2023-05-01T07:09:58.865Z,100094.08
2023-05-01T07:12:31.636Z,100094.27
2023-05-01T07:15:03.809Z,100093.58
2023-05-01T07:17:36.314Z,100092.88
2023-05-01T07:20:10.811Z,100087.79
2023-05-01T07:22:43.228Z,100087.42
2023-05-01T07:25:15.913Z,100083.73
2023-05-01T07:27:48.095Z,100080.52
2023-05-01T07:30:20.552Z,100076.93
2023-05-01T07:32:53.022Z,100074.96
2023-05-01T07:35:25.002Z,100074.32
2023-05-01T07:37:57.298Z,100074.54
2023-05-01T07:40:29.633Z,100072.61
2023-05-01T07:43:02.346Z,100077.11
2023-05-01T07:45:35.034Z,100075.75
2023-05-01T07:48:07.784Z,100072.92
2023-05-01T07:50:41.510Z,100064.99
2023-05-01T07:53:13.965Z,100061.13
2023-05-01T07:55:46.141Z,100056.33
2023-05-01T07:58:19.276Z,100056.59
2023-05-01T08:00:51.490Z,100048.55
2023-05-01T08:03:24.116Z,100047.47
2023-05-01T08:05:56.606Z,100047.88
2023-05-01T08:08:28.812Z,100051.70
2023-05-01T08:11:00.965Z,100048.05
2023-05-01T08:13:33.136Z,100043.32
2023-05-01T08:16:06.669Z,100050.08
2023-05-01T08:18:38.888Z,100047.08
2023-05-01T08:21:11.744Z,100040.80
2023-05-01T08:23:44.031Z,100044.44
2023-05-01T08:26:16.567Z,100043.05
2023-05-01T08:28:48.997Z,100042.83
2023-05-01T08:31:21.548Z,100038.72
2023-05-01T08:33:53.690Z,100033.05
2023-05-01T08:36:25.741Z,100027.06
2023-05-01T08:38:57.811Z,100023.42
2023-05-01T08:41:31.706Z,100022.02
2023-05-01T08:44:04.791Z,100017.80
2023-05-01T08:46:46.851Z,100018.48
2023-05-01T08:49:21.023Z,100023.90
2023-05-01T08:51:56.793Z,100019.23
2023-05-01T08:54:31.132Z,100020.45
2023-05-01T08:57:09.714Z,100017.99
2023-05-01T08:59:43.554Z,100014.98
2023-05-01T09:02:18.442Z,100012.08
2023-05-01T09:04:52.400Z,100003.92
2023-05-01T09:07:24.595Z,100003.89
2023-05-01T09:09:57.258Z,100001.75
2023-05-01T09:12:31.065Z,100000.61
2023-05-01T09:15:04.085Z,99993.70
2023-05-01T09:17:37.520Z,99994.03
2023-05-01T09:20:11.709Z,99992.98
2023-05-01T09:22:44.120Z,99995.85
2023-05-01T09:25:16.423Z,99993.16
2023-05-01T09:27:48.789Z,99994.52
2023-05-01T09:30:35.884Z,99991.71
2023-05-01T09:33:13.294Z,99981.58
2023-05-01T09:35:57.311Z,99984.07
2023-05-01T09:38:30.714Z,99983.54
2023-05-01T09:41:08.071Z,99983.75
2023-05-01T09:43:41.425Z,99977.40
2023-05-01T09:46:14.275Z,99972.90
2023-05-01T09:48:56.278Z,99973.96
2023-05-01T09:51:30.263Z,99971.52
2023-05-01T09:54:05.023Z,99974.31
2023-05-01T09:56:49.462Z,99967.85
2023-05-01T09:59:22.837Z,99966.77
2023-05-01T10:01:55.123Z,99964.71
2023-05-01T10:04:34.621Z,99962.68
2023-05-01T10:07:15.791Z,99961.73
2023-05-01T10:09:48.020Z,99963.46
2023-05-01T10:12:28.432Z,99966.20
2023-05-01T10:15:07.816Z,99957.89
2023-05-01T10:17:41.359Z,99952.73
2023-05-01T10:20:15.823Z,99951.27
2023-05-01T10:22:49.364Z,99947.48
2023-05-01T10:25:26.820Z,99942.59
2023-05-01T10:27:59.938Z,99938.00
2023-05-01T10:30:32.810Z,99942.52
2023-05-01T10:33:06.224Z,99939.16
2023-05-01T10:35:40.840Z,99937.44
2023-05-01T10:38:19.881Z,99941.21
2023-05-01T10:40:53.088Z,99929.23
2023-05-01T10:43:29.948Z,99924.65
2023-05-01T10:46:31.054Z,99923.42
2023-05-01T10:49:03.896Z,99922.62
2023-05-01T10:51:36.353Z,99916.86
2023-05-01T10:54:28.566Z,99910.50
2023-05-01T10:57:02.535Z,99910.26
2023-05-01T11:00:05.461Z,99910.00
2023-05-01T11:02:37.900Z,99910.11
2023-05-01T11:05:11.199Z,99904.44
2023-05-01T11:07:43.265Z,99899.06
2023-05-01T11:10:28.964Z,99892.11
2023-05-01T11:13:01.080Z,99883.21
2023-05-01T11:15:34.648Z,99872.40
2023-05-01T11:18:07.761Z,99870.95
2023-05-01T11:20:53.493Z,99866.27
2023-05-01T11:23:27.655Z,99866.84
2023-05-01T11:26:06.740Z,99859.96
2023-05-01T11:28:41.946Z,99858.95
2023-05-01T11:31:20.282Z,99848.73
2023-05-01T11:33:52.477Z,99850.84
2023-05-01T11:36:24.592Z,99845.75
2023-05-01T11:38:58.562Z,99844.02
2023-05-01T11:41:31.871Z,99841.83
2023-05-01T11:44:03.960Z,99842.85
2023-05-01T11:46:36.467Z,99840.05
2023-05-01T11:49:08.694Z,99835.45
2023-05-01T11:51:40.853Z,99832.55
2023-05-01T11:54:15.760Z,99834.13
2023-05-01T11:56:48.878Z,99829.51
2023-05-01T11:59:21.107Z,99828.38
2023-05-01T12:01:53.645Z,99821.27
2023-05-01T12:04:32.307Z,99819.54
2023-05-01T12:07:04.930Z,99818.81
2023-05-01T12:09:37.675Z,99818.95
2023-05-01T12:12:10.008Z,99818.65
2023-05-01T12:14:42.562Z,99817.20
2023-05-01T12:17:19.455Z,99814.69
2023-05-01T12:19:51.954Z,99811.71
2023-05-01T12:22:24.553Z,99807.27
2023-05-01T12:24:57.349Z,99801.13
2023-05-01T12:27:29.616Z,99798.81
2023-05-01T12:30:01.628Z,99786.54
2023-05-01T12:32:36.928Z,99782.85
2023-05-01T12:35:17.773Z,99778.80
2023-05-01T12:37:49.950Z,99776.66
2023-05-01T12:40:23.295Z,99775.02
2023-05-01T12:42:59.589Z,99766.35
2023-05-01T12:45:31.967Z,99765.19
2023-05-01T12:48:04.334Z,99757.16
2023-05-01T12:50:40.870Z,99755.90
2023-05-01T12:53:13.608Z,99753.27
2023-05-01T12:55:50.772Z,99747.18
2023-05-01T12:58:26.251Z,99747.91
2023-05-01T13:00:59.231Z,99748.02
2023-05-01T13:03:33.569Z,99751.77
2023-05-01T13:06:07.180Z,99739.64
2023-05-01T13:08:40.974Z,99736.01
2023-05-01T13:11:17.914Z,99727.56
2023-05-01T13:13:50.821Z,99725.99
2023-05-01T13:16:24.904Z,99723.39
2023-05-01T13:18:57.385Z,99720.09
2023-05-01T13:21:29.793Z,99714.34
2023-05-01T13:24:02.633Z,99709.27
2023-05-01T13:26:36.649Z,99703.84
2023-05-01T13:29:15.165Z,99703.19
2023-05-01T13:31:47.898Z,99699.69
2023-05-01T13:34:27.714Z,99692.30
2023-05-01T13:37:02.426Z,99686.20
2023-05-01T13:39:34.552Z,99685.41
2023-05-01T13:42:08.551Z,99687.20
2023-05-01T13:44:47.853Z,99684.04
2023-05-01T13:47:20.834Z,99675.02
2023-05-01T13:49:52.995Z,99671.34
2023-05-01T13:52:26.414Z,99663.58
2023-05-01T13:54:59.941Z,99659.50
2023-05-01T13:57:34.022Z,99660.85
2023-05-01T14:00:09.854Z,99662.74
2023-05-01T14:02:48.937Z,99658.37
2023-05-01T14:05:30.001Z,99648.20
2023-05-01T14:08:02.488Z,99644.64
2023-05-01T14:10:34.696Z,99641.48
2023-05-01T14:13:07.877Z,99637.42
2023-05-01T14:15:43.984Z,99634.21
2023-05-01T14:18:18.352Z,99630.64
2023-05-01T14:20:51.382Z,99627.89
2023-05-01T14:23:24.981Z,99622.97
2023-05-01T14:25:57.567Z,99619.42
2023-05-01T14:28:31.038Z,99618.07
2023-05-01T14:31:03.171Z,99616.96
2023-05-01T14:33:35.430Z,99616.63
2023-05-01T14:36:07.674Z,99611.05
2023-05-01T14:38:41.250Z,99606.86
2023-05-01T14:41:17.910Z,99601.95
2023-05-01T14:43:53.385Z,99599.58
2023-05-01T14:46:31.831Z,99596.08
2023-05-01T14:49:04.241Z,99592.56
2023-05-01T14:51:36.281Z,99593.98
2023-05-01T14:54:12.999Z,99588.17
2023-05-01T14:56:46.728Z,99587.49
2023-05-01T14:59:18.995Z,99590.20
2023-05-01T15:01:51.143Z,99589.08
2023-05-01T15:04:23.331Z,99592.91
2023-05-01T15:06:55.580Z,99593.20
2023-05-01T15:09:27.722Z,99593.26
2023-05-01T15:12:00.063Z,99590.66
2023-05-01T15:14:32.206Z,99590.23
2023-05-01T15:17:04.511Z,99585.33
2023-05-01T15:19:36.671Z,99580.35
2023-05-01T15:22:08.837Z,99576.02
2023-05-01T15:24:40.901Z,99571.02
2023-05-01T15:27:13.313Z,99569.61
2023-05-01T15:29:45.348Z,99563.30
2023-05-01T15:32:18.709Z,99565.87
2023-05-01T15:34:56.700Z,99570.77
2023-05-01T15:37:31.379Z,99570.44
2023-05-01T15:40:04.465Z,99567.33
2023-05-01T15:42:36.582Z,99561.16
2023-05-01T15:45:11.370Z,99562.90
2023-05-01T15:47:43.648Z,99566.07
2023-05-01T15:50:15.838Z,99560.39
2023-05-01T15:52:48.080Z,99557.55
2023-05-01T15:55:21.889Z,99560.64
2023-05-01T15:57:53.967Z,99559.98
2023-05-01T16:00:26.550Z,99560.34
2023-05-01T16:02:58.840Z,99558.61
2023-05-01T16:05:31.090Z,99559.16
2023-05-01T16:08:04.499Z,99557.80
2023-05-01T16:10:37.633Z,99557.10
2023-05-01T16:13:10.066Z,99552.73
2023-05-01T16:15:42.219Z,99554.77
2023-05-01T16:18:21.620Z,99555.10
2023-05-01T16:20:55.499Z,99545.31
2023-05-01T16:23:28.562Z,99546.62
2023-05-01T16:26:00.692Z,99541.59
2023-05-01T16:28:35.143Z,99538.73
2023-05-01T16:31:23.424Z,99534.56
2023-05-01T16:33:59.391Z,99535.02
2023-05-01T16:36:31.807Z,99532.69
2023-05-01T16:39:04.109Z,99529.23
2023-05-01T16:41:43.464Z,99529.34
2023-05-01T16:44:16.905Z,99527.59
2023-05-01T16:46:55.005Z,99525.77
2023-05-01T16:49:28.560Z,99529.02
2023-05-01T16:52:03.343Z,99529.55
2023-05-01T16:54:36.304Z,99532.29
2023-05-01T16:57:08.545Z,99531.77
2023-05-01T16:59:41.757Z,99530.96
2023-05-01T17:02:14.242Z,99531.56
2023-05-01T17:04:47.290Z,99532.54
2023-05-01T17:07:19.432Z,99532.90
2023-05-01T17:09:52.062Z,99530.98
2023-05-01T17:12:24.125Z,99529.67
2023-05-01T17:14:56.728Z,99526.89
2023-05-01T17:17:28.952Z,99524.11
2023-05-01T17:20:01.592Z,99524.83
2023-05-01T17:22:34.253Z,99530.65
2023-05-01T17:25:07.541Z,99526.73
2023-05-01T17:27:39.678Z,99529.73
2023-05-01T17:30:12.885Z,99528.73
2023-05-01T17:32:45.068Z,99527.74
2023-05-01T17:35:17.838Z,99528.12
2023-05-01T17:37:49.959Z,99527.81
2023-05-01T17:40:22.144Z,99524.58
2023-05-01T17:42:54.404Z,99529.27
2023-05-01T17:45:26.625Z,99532.23
2023-05-01T17:47:59.353Z,99534.91
2023-05-01T17:50:31.518Z,99537.02
2023-05-01T17:53:03.806Z,99537.73
2023-05-01T17:55:37.229Z,99542.43
2023-05-01T17:58:09.455Z,99541.35
2023-05-01T18:00:42.211Z,99543.57
2023-05-01T18:03:14.815Z,99542.11
2023-05-01T18:05:47.205Z,99540.84
2023-05-01T18:08:19.658Z,99543.22
2023-05-01T18:10:52.591Z,99539.32
2023-05-01T18:13:28.242Z,99537.23
2023-05-01T18:15:58.993Z,99539.55
2023-05-01T18:18:31.422Z,99546.10
2023-05-01T18:21:03.702Z,99546.34
2023-05-01T18:23:36.991Z,99545.91
2023-05-01T18:26:09.510Z,99552.58
2023-05-01T18:28:42.081Z,99557.36
2023-05-01T18:31:15.980Z,99560.39
2023-05-01T18:33:49.129Z,99560.14
2023-05-01T18:36:22.024Z,99562.64
2023-05-01T18:38:55.270Z,99567.38
2023-05-01T18:41:28.162Z,99568.65
2023-05-01T18:44:01.594Z,99567.98
2023-05-01T18:46:34.085Z,99570.27
2023-05-01T18:49:06.581Z,99565.12
2023-05-01T18:51:39.520Z,99570.55
2023-05-01T18:54:12.404Z,99573.69
2023-05-01T18:56:44.848Z,99574.08
2023-05-01T18:59:18.159Z,99578.09
2023-05-01T19:01:51.834Z,99578.80
2023-05-01T19:04:24.881Z,99581.40
2023-05-01T19:06:57.628Z,99582.63
2023-05-01T19:09:30.871Z,99583.52
2023-05-01T19:12:03.348Z,99584.56
2023-05-01T19:14:36.593Z,99587.52
2023-05-01T19:17:10.859Z,99590.95
2023-05-01T19:19:45.062Z,99592.52
2023-05-01T19:22:18.046Z,99597.55
2023-05-01T19:24:52.122Z,99598.58
2023-05-01T19:27:26.444Z,99603.08
2023-05-01T19:30:01.344Z,99602.73
2023-05-01T19:32:34.945Z,99611.36
2023-05-01T19:35:11.734Z,99613.92
2023-05-01T19:37:44.795Z,99616.50
2023-05-01T19:40:22.041Z,99614.95
2023-05-01T19:42:55.986Z,99612.70
2023-05-01T19:45:29.629Z,99613.89
2023-05-01T19:48:02.840Z,99610.19
2023-05-01T19:50:36.509Z,99610.81
2023-05-01T19:53:11.005Z,99611.23
2023-05-01T19:55:46.311Z,99609.27
2023-05-01T19:58:21.283Z,99610.31
2023-05-01T20:00:58.238Z,99612.05
2023-05-01T20:03:31.557Z,99613.77
2023-05-01T20:06:07.656Z,99613.60
2023-05-01T20:08:41.917Z,99609.25
2023-05-01T20:11:14.927Z,99609.41
2023-05-01T20:13:47.580Z,99607.70
2023-05-01T20:16:31.582Z,99605.99
2023-05-01T20:19:12.602Z,99599.95
2023-05-01T20:21:45.274Z,99598.90
2023-05-01T20:24:22.810Z,99594.75
2023-05-01T20:26:58.560Z,99597.02
2023-05-01T20:29:32.473Z,99595.95
2023-05-01T20:32:05.150Z,99596.95
2023-05-01T20:34:42.867Z,99596.91
2023-05-01T20:37:19.131Z,99598.94
2023-05-01T20:39:51.709Z,99599.41
2023-05-01T20:42:24.746Z,99600.42
2023-05-01T20:45:00.042Z,99601.27
2023-05-01T20:47:33.668Z,99599.52
2023-05-01T20:50:07.767Z,99602.10
2023-05-01T20:52:40.430Z,99604.13
2023-05-01T20:55:14.993Z,99601.34
2023-05-01T20:57:47.846Z,99598.58
2023-05-01T21:00:20.517Z,99597.02
2023-05-01T21:02:53.348Z,99592.69
2023-05-01T21:05:26.013Z,99597.83
2023-05-01T21:07:59.910Z,99600.94
2023-05-01T21:10:32.984Z,99602.63
2023-05-01T21:13:05.805Z,99602.05
2023-05-01T21:15:41.909Z,99604.21
2023-05-01T21:18:15.532Z,99605.88
2023-05-01T21:20:48.969Z,99608.70
2023-05-01T21:23:21.202Z,99604.10
2023-05-01T21:25:56.544Z,99603.05
2023-05-01T21:28:28.920Z,99606.36
2023-05-01T21:31:01.078Z,99602.00
2023-05-01T21:33:33.974Z,99605.41
2023-05-01T21:36:06.589Z,99604.33
2023-05-01T21:38:40.349Z,99605.83
2023-05-01T21:41:15.869Z,99608.67
2023-05-01T21:43:48.165Z,99607.10
2023-05-01T21:46:21.455Z,99609.31
2023-05-01T21:48:54.160Z,99608.39
2023-05-01T21:51:30.205Z,99606.10
2023-05-01T21:54:05.750Z,99603.79
2023-05-01T21:56:38.032Z,99605.25
2023-05-01T21:59:10.378Z,99604.88
2023-05-01T22:01:42.595Z,99604.50
2023-05-01T22:04:19.534Z,99604.28
2023-05-01T22:06:51.745Z,99603.01
2023-05-01T22:09:23.963Z,99603.98
2023-05-01T22:11:58.930Z,99606.17
2023-05-01T22:14:46.284Z,99608.38
2023-05-01T22:17:24.484Z,99609.67
2023-05-01T22:19:56.908Z,99612.23
2023-05-01T22:22:29.297Z,99610.77
2023-05-01T22:25:01.479Z,99610.83
2023-05-01T22:27:34.051Z,99610.38
2023-05-01T22:30:06.692Z,99612.16
2023-05-01T22:32:39.015Z,99612.27
2023-05-01T22:35:12.071Z,99609.48
2023-05-01T22:37:44.253Z,99612.23
2023-05-01T22:40:16.491Z,99610.98
2023-05-01T22:42:48.498Z,99611.44
2023-05-01T22:45:20.936Z,99610.20
2023-05-01T22:47:52.959Z,99610.01
2023-05-01T22:50:25.125Z,99610.98
2023-05-01T22:52:57.385Z,99612.29
2023-05-01T22:55:29.897Z,99609.64
2023-05-01T22:58:02.020Z,99607.88
2023-05-01T23:00:34.170Z,99605.40
2023-05-01T23:03:06.943Z,99606.63
2023-05-01T23:05:39.314Z,99607.95
2023-05-01T23:08:11.433Z,99603.67
2023-05-01T23:10:44.371Z,99603.92
2023-05-01T23:13:22.811Z,99603.47
2023-05-01T23:15:55.129Z,99601.77
2023-05-01T23:18:31.910Z,99602.33
2023-05-01T23:21:05.091Z,99603.38
2023-05-01T23:23:38.699Z,99596.15
2023-05-01T23:26:11.233Z,99599.25
2023-05-01T23:28:44.723Z,99594.27
2023-05-01T23:31:24.090Z,99592.92
2023-05-01T23:33:56.541Z,99591.52
2023-05-01T23:36:29.083Z,99595.27
2023-05-01T23:39:01.588Z,99588.69
2023-05-01T23:41:33.757Z,99591.45
2023-05-01T23:44:06.054Z,99586.80
2023-05-01T23:46:38.280Z,99583.58
2023-05-01T23:49:10.874Z,99583.46
2023-05-01T23:51:43.043Z,99582.36
2023-05-01T23:54:15.060Z,99583.14
2023-05-01T23:56:47.127Z,99584.25
2023-05-01T23:59:19.294Z,99588.14
